Ethelsville, Alabama
Current Conditions -  °F | °C
As of 2:18 PM on Sunday 23 Nov 2014 (Local Time) from KCBM Reporting Station
Broken Clouds Broken Clouds  
Wind Chill: 68°   Ceiling: 2500
Heat Index: 68°   Visibility: 10mi
Dew Point: 63°   Wind: 15mph
Humidity: 83%   Direction: 190°S
Pressure: 29.44"   Gusts: 23mph
Location:  33.42°N, 88.22°W
Report Text: KCBM 232018Z AUTO 19013G20KT 10SM BKN025 BKN031 20/17 A2944 RMK AO2
Loading
Personal Weather Stations






























Interactive Weather Map New forecast layout! Learn more

10-Day Weather Forecast

Advertisements
Track Severe Weather on mobile